Morgan, Texas
Current Conditions -  °F | °C
As of 4:35 PM on Monday 24 Nov 2014 (Local Time) from KCPT Reporting Station
Clear Clear  
Wind Chill: 14°   Ceiling: Unl
Heat Index: 14°   Visibility: 10mi
Dew Point: -6°   Wind: 5mph
Humidity: 25%   Direction: 280°W
Pressure: 30.07"   Gusts: NA
Location:  32.02°N, 97.61°W
Report Text: KCPT 242235Z AUTO 28004KT 10SM CLR 14/M06 A3007 RMK AO2
Loading
Personal Weather Stations






























Interactive Weather Map New forecast layout! Learn more

10-Day Weather Forecast

Advertisements
Track Severe Weather on mobile